createdAt,value
2022-08-17T00:00:57.577Z,11.63
2022-08-17T00:03:34.296Z,10.65
2022-08-17T00:06:12.259Z,11.30
2022-08-17T00:08:47.350Z,12.35
2022-08-17T00:11:23.696Z,12.58
2022-08-17T00:13:59.799Z,12.23
2022-08-17T00:16:55.929Z,11.90
2022-08-17T00:19:13.383Z,12.03
2022-08-17T00:22:35.241Z,12.37
2022-08-17T00:24:23.599Z,11.45
2022-08-17T00:26:56.757Z,12.50
2022-08-17T00:29:29.963Z,12.13
2022-08-17T00:33:13.602Z,13.03
2022-08-17T00:34:39.505Z,12.90
2022-08-17T00:37:12.642Z,12.35
2022-08-17T00:39:46.127Z,11.60
2022-08-17T00:42:20.800Z,12.47
2022-08-17T00:44:54.164Z,11.90
2022-08-17T00:47:27.842Z,12.37
2022-08-17T00:50:01.571Z,12.35
2022-08-17T00:55:19.107Z,11.48
2022-08-17T00:57:55.834Z,11.80
2022-08-17T01:00:32.349Z,12.45
2022-08-17T01:03:08.608Z,12.35
2022-08-17T01:05:43.046Z,12.15
2022-08-17T01:08:20.667Z,11.65
2022-08-17T01:11:00.254Z,11.50
2022-08-17T01:13:39.629Z,11.70
2022-08-17T01:16:11.985Z,12.15
2022-08-17T01:18:46.950Z,12.20
2022-08-17T01:21:23.982Z,12.13
2022-08-17T01:23:57.568Z,11.55
2022-08-17T01:26:33.758Z,11.70
2022-08-17T01:29:08.363Z,11.57
2022-08-17T01:31:45.287Z,10.88
2022-08-17T01:34:20.114Z,10.73
2022-08-17T01:36:53.969Z,10.93
2022-08-17T01:39:29.575Z,10.32
2022-08-17T01:42:07.222Z,11.55
2022-08-17T01:44:41.290Z,10.13
2022-08-17T01:47:14.986Z,12.18
2022-08-17T01:49:48.242Z,10.58
2022-08-17T01:52:23.947Z,10.78
2022-08-17T01:54:58.468Z,9.90
2022-08-17T01:57:31.647Z,10.85
2022-08-17T02:00:08.434Z,10.18
2022-08-17T02:02:45.395Z,10.05
2022-08-17T02:05:19.203Z,10.48
2022-08-17T02:08:00.468Z,11.08
2022-08-17T02:10:33.887Z,10.13
2022-08-17T02:13:03.377Z,11.05
2022-08-17T02:15:36.952Z,10.32
2022-08-17T02:18:11.990Z,10.45
2022-08-17T02:20:45.564Z,10.90
2022-08-17T02:23:19.429Z,11.28
2022-08-17T02:25:52.848Z,10.75
2022-08-17T02:28:26.325Z,10.13
2022-08-17T02:31:03.220Z,10.55
2022-08-17T02:33:41.999Z,10.05
2022-08-17T02:36:13.122Z,9.85
2022-08-17T02:38:46.264Z,8.90
2022-08-17T02:41:19.953Z,8.98
2022-08-17T02:43:53.747Z,9.23
2022-08-17T02:46:27.143Z,9.95
2022-08-17T02:49:01.025Z,10.28
2022-08-17T02:51:35.576Z,10.80
2022-08-17T02:54:40.445Z,8.78
2022-08-17T02:56:44.390Z,10.38
2022-08-17T02:59:17.585Z,9.08
2022-08-17T03:01:50.934Z,10.20
2022-08-17T03:04:24.406Z,9.15
2022-08-17T03:06:57.798Z,9.48
2022-08-17T03:09:30.731Z,9.08
2022-08-17T03:12:09.439Z,8.90
2022-08-17T03:14:43.737Z,9.48
2022-08-17T03:17:17.006Z,8.78
2022-08-17T03:19:53.502Z,8.90
2022-08-17T03:22:36.099Z,8.70
2022-08-17T03:25:10.812Z,8.63
2022-08-17T03:27:44.213Z,8.25
2022-08-17T03:30:19.469Z,8.18
2022-08-17T03:33:00.067Z,8.15
2022-08-17T03:35:37.711Z,8.98
2022-08-17T03:38:12.389Z,9.10
2022-08-17T03:40:57.381Z,8.60
2022-08-17T03:43:24.304Z,8.93
2022-08-17T03:46:28.422Z,8.20
2022-08-17T03:49:08.135Z,8.33
2022-08-17T03:52:15.842Z,9.00
2022-08-17T03:57:29.603Z,9.28
2022-08-17T04:00:04.514Z,7.87
2022-08-17T04:02:39.475Z,9.05
2022-08-17T04:05:12.999Z,7.85
2022-08-17T04:07:46.287Z,8.20
2022-08-17T04:10:22.672Z,8.65
2022-08-17T04:12:56.158Z,8.35
2022-08-17T04:15:30.042Z,8.35
2022-08-17T04:18:03.171Z,7.53
2022-08-17T04:20:36.593Z,7.80
2022-08-17T04:23:12.535Z,7.83
2022-08-17T04:25:48.973Z,7.10
2022-08-17T04:28:22.328Z,7.35
2022-08-17T04:30:55.356Z,8.63
2022-08-17T04:33:31.090Z,7.53
2022-08-17T04:36:07.667Z,8.45
2022-08-17T04:38:43.312Z,7.62
2022-08-17T04:41:34.577Z,8.10
2022-08-17T04:44:07.978Z,7.95
2022-08-17T04:46:41.222Z,6.95
2022-08-17T04:49:14.363Z,7.78
2022-08-17T04:51:54.463Z,7.75
2022-08-17T04:54:24.566Z,8.13
2022-08-17T04:56:57.886Z,7.45
2022-08-17T04:59:31.148Z,7.20
2022-08-17T05:02:04.261Z,7.50
2022-08-17T05:04:37.223Z,6.47
2022-08-17T05:07:11.118Z,7.50
2022-08-17T05:09:44.223Z,7.95
2022-08-17T05:12:18.453Z,7.33
2022-08-17T05:14:51.686Z,6.65
2022-08-17T05:17:24.669Z,6.80
2022-08-17T05:19:57.873Z,7.40
2022-08-17T05:22:31.496Z,7.20
2022-08-17T05:25:04.597Z,7.58
2022-08-17T05:27:38.479Z,7.00
2022-08-17T05:30:15.509Z,6.55
2022-08-17T05:32:56.176Z,6.55
2022-08-17T05:35:31.491Z,6.87
2022-08-17T05:38:05.557Z,6.92
2022-08-17T05:40:38.903Z,6.10
2022-08-17T05:43:15.137Z,6.33
2022-08-17T05:45:55.104Z,6.33
2022-08-17T05:48:36.776Z,6.67
2022-08-17T05:51:06.593Z,7.45
2022-08-17T05:53:43.452Z,5.70
2022-08-17T05:56:29.702Z,7.28
2022-08-17T05:58:57.555Z,6.72
2022-08-17T06:01:35.744Z,6.22
2022-08-17T06:04:14.235Z,5.92
2022-08-17T06:06:50.869Z,5.85
2022-08-17T06:09:36.122Z,5.75
2022-08-17T06:12:19.818Z,5.80
2022-08-17T06:15:01.529Z,6.45
2022-08-17T06:17:35.844Z,6.22
2022-08-17T06:20:13.208Z,6.08
2022-08-17T06:22:49.530Z,5.75
2022-08-17T06:25:25.694Z,5.35
2022-08-17T06:28:01.155Z,5.87
2022-08-17T06:30:59.318Z,5.80
2022-08-17T06:33:15.843Z,6.37
2022-08-17T06:35:52.909Z,6.03
2022-08-17T06:38:37.968Z,5.42
2022-08-17T06:41:12.802Z,5.40
2022-08-17T06:43:52.325Z,5.10
2022-08-17T06:46:28.416Z,5.45
2022-08-17T06:49:09.187Z,4.85
2022-08-17T06:51:46.271Z,4.97
2022-08-17T06:57:06.322Z,4.37
2022-08-17T07:02:29.128Z,3.80
2022-08-17T07:05:03.731Z,3.70
2022-08-17T07:07:57.282Z,4.42
2022-08-17T07:10:34.376Z,3.83
2022-08-17T07:13:29.594Z,4.28
2022-08-17T07:16:08.792Z,4.00
2022-08-17T07:18:44.067Z,3.20
2022-08-17T07:21:25.810Z,3.27
2022-08-17T07:24:11.111Z,3.25
2022-08-17T07:26:47.770Z,3.42
2022-08-17T07:29:21.704Z,3.83
2022-08-17T07:31:57.499Z,3.60
2022-08-17T07:34:30.615Z,3.30
2022-08-17T07:37:06.524Z,2.75
2022-08-17T07:39:39.662Z,2.83
2022-08-17T07:42:14.801Z,3.47
2022-08-17T07:44:53.859Z,3.47
2022-08-17T07:47:44.756Z,2.77
2022-08-17T07:50:30.518Z,2.67
2022-08-17T07:53:11.406Z,3.10
2022-08-17T07:55:45.478Z,2.60
2022-08-17T07:58:20.883Z,2.90
2022-08-17T08:01:09.490Z,2.90
2022-08-17T08:03:46.226Z,2.98
2022-08-17T08:06:25.149Z,3.40
2022-08-17T08:09:00.684Z,3.95
2022-08-17T08:11:35.872Z,2.92
2022-08-17T08:14:31.087Z,3.62
2022-08-17T08:17:06.522Z,2.83
2022-08-17T08:19:41.132Z,3.08
2022-08-17T08:22:17.149Z,3.17
2022-08-17T08:25:01.281Z,2.93
2022-08-17T08:27:39.811Z,3.55
2022-08-17T08:30:15.830Z,2.92
2022-08-17T08:32:58.408Z,3.30
2022-08-17T08:35:35.103Z,3.27
2022-08-17T08:38:14.630Z,3.05
2022-08-17T08:40:55.496Z,2.58
2022-08-17T08:43:34.660Z,2.87
2022-08-17T08:46:11.742Z,3.42
2022-08-17T08:49:39.025Z,3.02
2022-08-17T08:52:00.090Z,3.85
2022-08-17T08:54:39.424Z,2.85
2022-08-17T08:57:33.510Z,3.00
2022-08-17T09:00:10.601Z,3.67
2022-08-17T09:06:37.478Z,2.98
2022-08-17T09:09:01.960Z,3.08
2022-08-17T09:12:01.076Z,3.10
2022-08-17T09:14:21.878Z,2.87
2022-08-17T09:16:59.050Z,2.70
2022-08-17T09:19:35.750Z,3.08
2022-08-17T09:22:13.784Z,2.90
2022-08-17T09:24:50.233Z,2.80
2022-08-17T09:27:26.475Z,3.55
2022-08-17T09:30:02.616Z,2.90
2022-08-17T09:32:40.757Z,2.80
2022-08-17T09:35:16.893Z,3.25
2022-08-17T09:40:28.208Z,3.58
2022-08-17T09:43:05.805Z,2.77
2022-08-17T09:45:42.789Z,3.35
2022-08-17T09:51:05.916Z,2.70
2022-08-17T09:53:39.652Z,2.77
2022-08-17T09:59:38.372Z,2.73
2022-08-17T10:02:10.222Z,2.80
2022-08-17T10:04:48.354Z,2.40
2022-08-17T10:07:25.097Z,3.02
2022-08-17T10:10:01.889Z,2.72
2022-08-17T10:12:40.430Z,3.42
2022-08-17T10:15:23.249Z,3.55
2022-08-17T10:18:11.190Z,2.92
2022-08-17T10:20:48.724Z,4.42
2022-08-17T10:23:42.361Z,3.83
2022-08-17T10:26:18.617Z,2.87
2022-08-17T10:28:55.087Z,3.17
2022-08-17T10:31:34.591Z,3.40
2022-08-17T10:37:59.358Z,3.90
2022-08-17T10:40:38.895Z,4.08
2022-08-17T10:43:22.770Z,3.33
2022-08-17T10:46:27.921Z,3.80
2022-08-17T10:48:39.633Z,3.80
2022-08-17T10:51:15.439Z,4.60
2022-08-17T10:54:01.507Z,4.40
2022-08-17T10:56:47.391Z,3.80
2022-08-17T10:59:51.785Z,3.70
2022-08-17T11:02:31.684Z,3.87
2022-08-17T11:05:16.836Z,3.87
2022-08-17T11:07:58.652Z,3.23
2022-08-17T11:10:52.306Z,3.60
2022-08-17T11:13:33.275Z,4.00
2022-08-17T11:16:13.161Z,3.52
2022-08-17T11:18:58.160Z,4.15
2022-08-17T11:21:56.029Z,3.70
2022-08-17T11:24:35.842Z,4.47
2022-08-17T11:27:12.555Z,3.40
2022-08-17T11:29:59.508Z,3.35
2022-08-17T11:32:37.146Z,4.62
2022-08-17T11:35:29.754Z,3.90
2022-08-17T11:38:19.164Z,4.08
2022-08-17T11:44:18.785Z,4.53
2022-08-17T11:47:17.761Z,4.45
2022-08-17T11:50:18.360Z,4.45
2022-08-17T11:52:52.158Z,5.62
2022-08-17T11:55:59.833Z,4.55
2022-08-17T11:58:40.391Z,4.92
2022-08-17T12:01:16.108Z,6.20
2022-08-17T12:03:54.242Z,5.83
2022-08-17T12:06:38.629Z,6.83
2022-08-17T12:09:16.344Z,4.90
2022-08-17T12:11:55.339Z,5.65
2022-08-17T12:15:05.909Z,5.60
2022-08-17T12:17:10.654Z,5.60
2022-08-17T12:19:47.041Z,5.85
2022-08-17T12:22:23.810Z,5.67
2022-08-17T12:24:59.995Z,5.97
2022-08-17T12:28:05.484Z,5.53
2022-08-17T12:30:14.396Z,5.50
2022-08-17T12:32:48.804Z,5.20
2022-08-17T12:35:24.950Z,5.85
2022-08-17T12:38:00.011Z,5.75
2022-08-17T12:40:34.843Z,5.42
2022-08-17T12:43:11.498Z,5.22
2022-08-17T12:45:46.380Z,6.15
2022-08-17T12:48:25.880Z,6.25
2022-08-17T12:51:04.430Z,5.30
2022-08-17T12:53:38.492Z,5.42
2022-08-17T12:56:14.442Z,5.70
2022-08-17T13:01:23.792Z,5.60
2022-08-17T13:03:59.858Z,5.45
2022-08-17T13:06:35.240Z,5.80
2022-08-17T13:09:14.634Z,6.27
2022-08-17T13:11:52.485Z,6.40
2022-08-17T13:14:25.773Z,5.33
2022-08-17T13:17:00.762Z,7.53
2022-08-17T13:19:41.117Z,6.83
2022-08-17T13:22:13.710Z,6.47
2022-08-17T13:24:54.638Z,6.03
2022-08-17T13:27:30.513Z,6.03
2022-08-17T13:30:07.041Z,5.12
2022-08-17T13:32:44.286Z,5.58
2022-08-17T13:35:52.253Z,5.33
2022-08-17T13:38:42.946Z,5.72
2022-08-17T13:41:34.641Z,5.35
2022-08-17T13:44:37.453Z,6.03
2022-08-17T13:47:17.333Z,6.05
2022-08-17T13:49:51.393Z,5.47
2022-08-17T13:52:40.526Z,4.67
2022-08-17T13:55:20.946Z,5.10
2022-08-17T13:58:03.555Z,5.00
2022-08-17T14:00:35.459Z,5.50
2022-08-17T14:03:08.880Z,5.62
2022-08-17T14:05:42.409Z,5.83
2022-08-17T14:08:17.096Z,5.62
2022-08-17T14:10:53.728Z,5.22
2022-08-17T14:13:28.867Z,5.40
2022-08-17T14:16:02.246Z,5.42
2022-08-17T14:18:55.918Z,5.55
2022-08-17T14:21:10.319Z,5.10
2022-08-17T14:23:54.628Z,5.72
2022-08-17T14:26:19.427Z,5.83
2022-08-17T14:28:56.833Z,5.75
2022-08-17T14:31:35.370Z,5.30
2022-08-17T14:34:06.474Z,6.45
2022-08-17T14:36:48.146Z,7.47
2022-08-17T14:39:18.909Z,5.25
2022-08-17T14:41:53.061Z,6.03
2022-08-17T14:44:26.179Z,6.03
2022-08-17T14:46:59.325Z,5.85
2022-08-17T14:49:32.593Z,6.15
2022-08-17T14:52:06.393Z,5.03
2022-08-17T14:54:45.146Z,5.08
2022-08-17T14:57:23.858Z,5.62
2022-08-17T14:59:52.301Z,5.47
2022-08-17T15:02:29.876Z,5.33
2022-08-17T15:05:05.557Z,6.00
2022-08-17T15:07:38.526Z,6.85
2022-08-17T15:10:12.886Z,6.80
2022-08-17T15:12:46.375Z,6.75
2022-08-17T15:15:20.571Z,6.12
2022-08-17T15:17:54.040Z,7.35
2022-08-17T15:20:29.935Z,6.65
2022-08-17T15:23:03.491Z,6.47
2022-08-17T15:25:37.008Z,7.12
2022-08-17T15:28:10.073Z,6.45
2022-08-17T15:30:44.935Z,7.45
2022-08-17T15:33:20.530Z,7.60
2022-08-17T15:35:54.616Z,9.25
2022-08-17T15:38:28.189Z,6.87
2022-08-17T15:41:01.434Z,6.67
2022-08-17T15:43:34.981Z,6.28
2022-08-17T15:46:12.517Z,6.67
2022-08-17T15:48:47.562Z,5.05
2022-08-17T15:51:23.399Z,5.37
2022-08-17T15:53:58.628Z,6.22
2022-08-17T15:56:32.500Z,5.92
2022-08-17T15:59:06.245Z,5.42
2022-08-17T16:03:14.863Z,6.15
2022-08-17T16:04:30.452Z,5.85
2022-08-17T16:06:49.625Z,6.72
2022-08-17T16:09:23.271Z,5.65
2022-08-17T16:11:56.743Z,5.65
2022-08-17T16:14:33.837Z,6.30
2022-08-17T16:17:38.401Z,7.75
2022-08-17T16:19:43.346Z,5.92
2022-08-17T16:22:17.547Z,5.95
2022-08-17T16:24:57.495Z,5.83
2022-08-17T16:27:27.605Z,6.12
2022-08-17T16:30:01.434Z,5.50
2022-08-17T16:32:36.253Z,6.28
2022-08-17T16:35:15.155Z,5.95
2022-08-17T16:37:48.540Z,6.17
2022-08-17T16:40:23.241Z,6.60
2022-08-17T16:42:57.919Z,5.90
2022-08-17T16:45:35.624Z,5.67
2022-08-17T16:48:09.806Z,5.30
2022-08-17T16:51:02.863Z,6.28
2022-08-17T16:53:21.303Z,7.12
2022-08-17T16:55:54.885Z,6.70
2022-08-17T16:58:28.204Z,7.75
2022-08-17T17:01:02.040Z,6.03
2022-08-17T17:03:36.058Z,7.72
2022-08-17T17:08:56.247Z,6.55
2022-08-17T17:11:33.739Z,7.20
2022-08-17T17:14:10.048Z,5.97
2022-08-17T17:16:47.077Z,6.42
2022-08-17T17:19:27.740Z,6.62
2022-08-17T17:22:03.078Z,6.50
2022-08-17T17:24:39.314Z,6.87
2022-08-17T17:27:19.483Z,6.85
2022-08-17T17:29:59.520Z,8.03
2022-08-17T17:32:38.574Z,6.60
2022-08-17T17:35:19.061Z,6.67
2022-08-17T17:37:53.977Z,6.03
2022-08-17T17:40:30.539Z,7.28
2022-08-17T17:43:34.794Z,6.30
2022-08-17T17:45:44.724Z,6.40
2022-08-17T17:48:18.325Z,6.05
2022-08-17T17:50:55.942Z,6.25
2022-08-17T17:53:34.999Z,5.53
2022-08-17T17:56:34.261Z,6.50
2022-08-17T17:58:50.430Z,6.85
2022-08-17T18:01:34.667Z,5.37
2022-08-17T18:04:26.715Z,5.90
2022-08-17T18:07:09.962Z,6.33
2022-08-17T18:10:01.084Z,5.15
2022-08-17T18:12:35.982Z,6.53
2022-08-17T18:15:36.279Z,5.70
2022-08-17T18:18:38.730Z,5.10
2022-08-17T18:21:19.484Z,6.10
2022-08-17T18:23:58.162Z,5.80
2022-08-17T18:26:51.131Z,6.42
2022-08-17T18:29:40.232Z,5.65
2022-08-17T18:32:20.493Z,5.42
2022-08-17T18:34:56.060Z,6.10
2022-08-17T18:37:50.617Z,5.90
2022-08-17T18:40:41.878Z,6.20
2022-08-17T18:43:23.525Z,5.78
2022-08-17T18:45:59.155Z,6.50
2022-08-17T18:48:36.888Z,4.78
2022-08-17T18:51:39.754Z,5.90
2022-08-17T18:54:18.701Z,5.45
2022-08-17T18:56:56.848Z,5.85
2022-08-17T18:59:41.258Z,4.53
2022-08-17T19:02:44.789Z,5.65
2022-08-17T19:05:13.693Z,4.97
2022-08-17T19:07:48.338Z,5.85
2022-08-17T19:10:25.626Z,5.37
2022-08-17T19:13:03.746Z,6.10
2022-08-17T19:15:41.902Z,5.17
2022-08-17T19:18:18.455Z,5.17
2022-08-17T19:20:54.971Z,5.47
2022-08-17T19:23:31.304Z,5.65
2022-08-17T19:26:07.062Z,5.80
2022-08-17T19:28:48.580Z,5.45
2022-08-17T19:31:24.846Z,5.72
2022-08-17T19:34:01.804Z,5.47
2022-08-17T19:36:39.713Z,5.65
2022-08-17T19:39:17.988Z,5.20
2022-08-17T19:41:54.679Z,5.12
2022-08-17T19:44:40.214Z,5.40
2022-08-17T19:47:36.467Z,5.62
2022-08-17T19:49:58.921Z,5.83
2022-08-17T19:52:41.512Z,4.97
2022-08-17T19:55:21.721Z,5.50
2022-08-17T19:58:00.927Z,6.25
2022-08-17T20:00:38.277Z,6.40
2022-08-17T20:03:16.829Z,6.53
2022-08-17T20:08:30.868Z,6.72
2022-08-17T20:11:07.712Z,7.45
2022-08-17T20:13:45.117Z,7.67
2022-08-17T20:16:20.650Z,7.10
2022-08-17T20:18:57.214Z,6.90
2022-08-17T20:21:34.449Z,6.42
2022-08-17T20:24:16.923Z,6.45
2022-08-17T20:26:58.464Z,6.35
2022-08-17T20:29:40.549Z,6.37
2022-08-17T20:35:27.278Z,6.85
2022-08-17T20:38:04.974Z,8.18
2022-08-17T20:46:50.612Z,6.00
2022-08-17T20:49:30.647Z,6.58
2022-08-17T20:52:10.771Z,7.15
2022-08-17T20:54:51.537Z,6.17
2022-08-17T20:57:50.017Z,6.85
2022-08-17T21:00:46.136Z,6.50
2022-08-17T21:03:52.244Z,7.53
2022-08-17T21:06:31.872Z,6.80
2022-08-17T21:09:27.769Z,7.00
2022-08-17T21:12:05.436Z,6.72
2022-08-17T21:14:58.297Z,6.53
2022-08-17T21:17:51.610Z,7.10
2022-08-17T21:20:32.858Z,6.50
2022-08-17T21:23:34.584Z,6.92
2022-08-17T21:26:30.123Z,6.12
2022-08-17T21:29:30.451Z,6.25
2022-08-17T21:31:54.084Z,6.53
2022-08-17T21:34:35.348Z,6.53
2022-08-17T21:37:31.524Z,7.22
2022-08-17T21:40:20.140Z,6.72
2022-08-17T21:42:56.361Z,6.80
2022-08-17T21:45:34.502Z,6.85
2022-08-17T21:48:15.742Z,6.92
2022-08-17T21:50:59.531Z,6.22
2022-08-17T21:53:38.008Z,6.65
2022-08-17T21:56:14.060Z,7.10
2022-08-17T21:58:49.014Z,7.10
2022-08-17T22:01:25.165Z,6.20
2022-08-17T22:04:06.729Z,7.53
2022-08-17T22:06:43.349Z,6.85
2022-08-17T22:09:21.056Z,7.47
2022-08-17T22:12:01.747Z,7.28
2022-08-17T22:14:53.296Z,7.92
2022-08-17T22:19:52.030Z,6.62
2022-08-17T22:22:40.378Z,6.58
2022-08-17T22:25:17.375Z,6.97
2022-08-17T22:27:55.571Z,7.42
2022-08-17T22:30:34.266Z,6.85
2022-08-17T22:33:34.382Z,7.28
2022-08-17T22:36:25.052Z,7.65
2022-08-17T22:39:00.015Z,6.50
2022-08-17T22:41:41.540Z,6.72
2022-08-17T22:44:23.370Z,6.62
2022-08-17T22:47:00.466Z,6.58
2022-08-17T22:49:38.533Z,7.12
2022-08-17T22:52:34.621Z,7.58
2022-08-17T22:55:32.613Z,7.37
2022-08-17T22:58:29.560Z,7.20
2022-08-17T23:01:25.640Z,7.35
2022-08-17T23:04:02.222Z,6.80
2022-08-17T23:06:37.549Z,7.17
2022-08-17T23:09:11.220Z,6.72
2022-08-17T23:11:49.048Z,6.97
2022-08-17T23:14:23.633Z,7.87
2022-08-17T23:16:59.646Z,7.78
2022-08-17T23:19:33.485Z,7.10
2022-08-17T23:22:08.826Z,6.72
2022-08-17T23:24:48.619Z,7.10
2022-08-17T23:27:22.234Z,6.85
2022-08-17T23:29:55.991Z,7.20
2022-08-17T23:32:29.441Z,7.03
2022-08-17T23:35:02.930Z,6.70
2022-08-17T23:37:36.723Z,6.97
2022-08-17T23:40:12.412Z,6.62
2022-08-17T23:42:46.202Z,6.95
2022-08-17T23:45:25.064Z,6.65
2022-08-17T23:48:00.526Z,6.50
2022-08-17T23:50:34.727Z,7.75
2022-08-17T23:53:08.472Z,6.72
2022-08-17T23:55:42.242Z,7.25
2022-08-17T23:58:15.806Z,6.92
